sensor_id;sensor_type;location;lat;lon;timestamp;temperature;humidity
14737;DHT22;7459;53.590;10.062;2022-12-11T00:01:15;-0.80;99.90
14737;DHT22;7459;53.590;10.062;2022-12-11T00:03:42;-0.80;99.90
14737;DHT22;7459;53.590;10.062;2022-12-11T00:06:10;-0.90;99.90
14737;DHT22;7459;53.590;10.062;2022-12-11T00:08:38;-0.90;99.90
14737;DHT22;7459;53.590;10.062;2022-12-11T00:11:07;-0.90;99.90
14737;DHT22;7459;53.590;10.062;2022-12-11T00:13:34;-0.90;99.90
14737;DHT22;7459;53.590;10.062;2022-12-11T00:16:00;-0.90;99.90
14737;DHT22;7459;53.590;10.062;2022-12-11T00:18:25;-0.90;99.90
14737;DHT22;7459;53.590;10.062;2022-12-11T00:20:51;-0.90;99.90
14737;DHT22;7459;53.590;10.062;2022-12-11T00:23:17;-0.90;99.90
14737;DHT22;7459;53.590;10.062;2022-12-11T00:25:44;-0.90;99.90
14737;DHT22;7459;53.590;10.062;2022-12-11T00:28:13;-0.90;99.90
14737;DHT22;7459;53.590;10.062;2022-12-11T00:30:40;-1.00;99.90
14737;DHT22;7459;53.590;10.062;2022-12-11T00:33:07;-0.90;99.90
14737;DHT22;7459;53.590;10.062;2022-12-11T00:35:37;-1.00;99.90
14737;DHT22;7459;53.590;10.062;2022-12-11T00:38:07;-1.00;99.90
14737;DHT22;7459;53.590;10.062;2022-12-11T00:40:34;-1.00;99.90
14737;DHT22;7459;53.590;10.062;2022-12-11T00:43:01;-1.00;99.90
14737;DHT22;7459;53.590;10.062;2022-12-11T00:45:27;-1.00;99.90
14737;DHT22;7459;53.590;10.062;2022-12-11T00:47:52;-0.90;99.90
14737;DHT22;7459;53.590;10.062;2022-12-11T00:50:18;-0.90;99.90
14737;DHT22;7459;53.590;10.062;2022-12-11T00:52:44;-0.90;99.90
14737;DHT22;7459;53.590;10.062;2022-12-11T00:55:10;-0.90;99.90
14737;DHT22;7459;53.590;10.062;2022-12-11T00:57:35;-0.90;99.90
14737;DHT22;7459;53.590;10.062;2022-12-11T01:00:03;-0.90;99.90
14737;DHT22;7459;53.590;10.062;2022-12-11T01:02:32;-0.90;99.90
14737;DHT22;7459;53.590;10.062;2022-12-11T01:04:57;-0.90;99.90
14737;DHT22;7459;53.590;10.062;2022-12-11T01:07:23;-0.90;99.90
14737;DHT22;7459;53.590;10.062;2022-12-11T01:09:49;-0.90;99.90
14737;DHT22;7459;53.590;10.062;2022-12-11T01:12:33;-0.90;99.90
14737;DHT22;7459;53.590;10.062;2022-12-11T01:14:58;-1.00;99.90
14737;DHT22;7459;53.590;10.062;2022-12-11T01:17:24;-0.90;99.90
14737;DHT22;7459;53.590;10.062;2022-12-11T01:19:53;-0.90;99.90
14737;DHT22;7459;53.590;10.062;2022-12-11T01:22:19;-0.90;99.90
14737;DHT22;7459;53.590;10.062;2022-12-11T01:24:45;-0.90;99.90
14737;DHT22;7459;53.590;10.062;2022-12-11T01:27:10;-0.90;99.90
14737;DHT22;7459;53.590;10.062;2022-12-11T01:29:36;-0.90;99.90
14737;DHT22;7459;53.590;10.062;2022-12-11T01:32:02;-0.80;99.90
14737;DHT22;7459;53.590;10.062;2022-12-11T01:34:29;-0.80;99.90
14737;DHT22;7459;53.590;10.062;2022-12-11T01:36:54;-0.80;99.90
14737;DHT22;7459;53.590;10.062;2022-12-11T01:39:20;-0.70;99.90
14737;DHT22;7459;53.590;10.062;2022-12-11T01:41:46;-0.70;99.90
14737;DHT22;7459;53.590;10.062;2022-12-11T01:46:41;-0.70;99.90
14737;DHT22;7459;53.590;10.062;2022-12-11T01:49:10;-0.80;99.90
14737;DHT22;7459;53.590;10.062;2022-12-11T01:51:47;-0.70;99.90
14737;DHT22;7459;53.590;10.062;2022-12-11T01:54:16;-0.70;99.90
14737;DHT22;7459;53.590;10.062;2022-12-11T01:56:45;-0.70;99.90
14737;DHT22;7459;53.590;10.062;2022-12-11T01:59:13;-0.70;99.90
14737;DHT22;7459;53.590;10.062;2022-12-11T02:01:46;-0.70;99.90
14737;DHT22;7459;53.590;10.062;2022-12-11T02:04:16;-0.70;99.90
14737;DHT22;7459;53.590;10.062;2022-12-11T02:06:48;-0.70;99.90
14737;DHT22;7459;53.590;10.062;2022-12-11T02:09:22;-0.70;99.90
14737;DHT22;7459;53.590;10.062;2022-12-11T02:17:55;-0.70;99.90
14737;DHT22;7459;53.590;10.062;2022-12-11T02:26:06;-0.80;99.90
14737;DHT22;7459;53.590;10.062;2022-12-11T02:28:47;-0.80;99.90
14737;DHT22;7459;53.590;10.062;2022-12-11T02:31:37;-0.70;99.90
14737;DHT22;7459;53.590;10.062;2022-12-11T02:34:16;-0.70;99.90
14737;DHT22;7459;53.590;10.062;2022-12-11T02:37:10;-0.70;99.90
14737;DHT22;7459;53.590;10.062;2022-12-11T02:39:41;-0.70;99.90
14737;DHT22;7459;53.590;10.062;2022-12-11T02:42:09;-0.70;99.90
14737;DHT22;7459;53.590;10.062;2022-12-11T02:44:36;-0.70;99.90
14737;DHT22;7459;53.590;10.062;2022-12-11T02:47:03;-0.70;99.90
14737;DHT22;7459;53.590;10.062;2022-12-11T02:49:32;-0.80;99.90
14737;DHT22;7459;53.590;10.062;2022-12-11T02:52:00;-0.70;99.90
14737;DHT22;7459;53.590;10.062;2022-12-11T02:54:31;-0.70;99.90
14737;DHT22;7459;53.590;10.062;2022-12-11T02:57:11;-0.80;99.90
14737;DHT22;7459;53.590;10.062;2022-12-11T02:59:41;-0.80;99.90
14737;DHT22;7459;53.590;10.062;2022-12-11T03:02:09;-0.80;99.90
14737;DHT22;7459;53.590;10.062;2022-12-11T03:04:36;-0.80;99.90
14737;DHT22;7459;53.590;10.062;2022-12-11T03:07:21;-0.80;99.90
14737;DHT22;7459;53.590;10.062;2022-12-11T03:09:50;-0.80;99.90
14737;DHT22;7459;53.590;10.062;2022-12-11T03:12:19;-0.80;99.90
14737;DHT22;7459;53.590;10.062;2022-12-11T03:14:47;-0.80;99.90
14737;DHT22;7459;53.590;10.062;2022-12-11T03:17:20;-0.80;99.90
14737;DHT22;7459;53.590;10.062;2022-12-11T03:20:06;-0.80;99.90
14737;DHT22;7459;53.590;10.062;2022-12-11T03:26:07;-0.80;99.90
14737;DHT22;7459;53.590;10.062;2022-12-11T03:31:28;-0.80;99.90
14737;DHT22;7459;53.590;10.062;2022-12-11T03:34:00;-0.80;99.90
14737;DHT22;7459;53.590;10.062;2022-12-11T03:36:35;-0.90;99.90
14737;DHT22;7459;53.590;10.062;2022-12-11T03:39:06;-0.90;99.90
14737;DHT22;7459;53.590;10.062;2022-12-11T03:41:36;-0.90;99.90
14737;DHT22;7459;53.590;10.062;2022-12-11T03:44:03;-0.90;99.90
14737;DHT22;7459;53.590;10.062;2022-12-11T03:46:34;-0.80;99.90
14737;DHT22;7459;53.590;10.062;2022-12-11T03:49:05;-0.90;99.90
14737;DHT22;7459;53.590;10.062;2022-12-11T03:51:33;-0.90;99.90
14737;DHT22;7459;53.590;10.062;2022-12-11T03:54:00;-0.90;99.90
14737;DHT22;7459;53.590;10.062;2022-12-11T03:56:27;-0.90;99.90
14737;DHT22;7459;53.590;10.062;2022-12-11T03:58:54;-0.90;99.90
14737;DHT22;7459;53.590;10.062;2022-12-11T04:01:20;-0.90;99.90
14737;DHT22;7459;53.590;10.062;2022-12-11T04:03:46;-0.90;99.90
14737;DHT22;7459;53.590;10.062;2022-12-11T04:06:11;-0.90;99.90
14737;DHT22;7459;53.590;10.062;2022-12-11T04:08:37;-0.90;99.90
14737;DHT22;7459;53.590;10.062;2022-12-11T04:11:03;-0.90;99.90
14737;DHT22;7459;53.590;10.062;2022-12-11T04:13:48;-1.00;99.90
14737;DHT22;7459;53.590;10.062;2022-12-11T04:16:33;-1.00;99.90
14737;DHT22;7459;53.590;10.062;2022-12-11T04:18:59;-1.00;99.90
14737;DHT22;7459;53.590;10.062;2022-12-11T04:21:43;-1.00;99.90
14737;DHT22;7459;53.590;10.062;2022-12-11T04:24:27;-1.00;99.90
14737;DHT22;7459;53.590;10.062;2022-12-11T04:26:53;-1.00;99.90
14737;DHT22;7459;53.590;10.062;2022-12-11T04:29:19;-0.90;99.90
14737;DHT22;7459;53.590;10.062;2022-12-11T04:31:44;-0.90;99.90
14737;DHT22;7459;53.590;10.062;2022-12-11T04:34:10;-0.90;99.90
14737;DHT22;7459;53.590;10.062;2022-12-11T04:36:36;-0.90;99.90
14737;DHT22;7459;53.590;10.062;2022-12-11T04:39:03;-0.90;99.90
14737;DHT22;7459;53.590;10.062;2022-12-11T04:41:30;-0.90;99.90
14737;DHT22;7459;53.590;10.062;2022-12-11T04:43:56;-0.90;99.90
14737;DHT22;7459;53.590;10.062;2022-12-11T04:46:22;-0.90;99.90
14737;DHT22;7459;53.590;10.062;2022-12-11T04:48:49;-0.90;99.90
14737;DHT22;7459;53.590;10.062;2022-12-11T04:51:16;-0.90;99.90
14737;DHT22;7459;53.590;10.062;2022-12-11T04:53:43;-0.90;99.90
14737;DHT22;7459;53.590;10.062;2022-12-11T04:56:13;-0.90;99.90
14737;DHT22;7459;53.590;10.062;2022-12-11T04:58:40;-0.90;99.90
14737;DHT22;7459;53.590;10.062;2022-12-11T05:01:08;-0.90;99.90
14737;DHT22;7459;53.590;10.062;2022-12-11T05:03:38;-0.90;99.90
14737;DHT22;7459;53.590;10.062;2022-12-11T05:06:05;-1.00;99.90
14737;DHT22;7459;53.590;10.062;2022-12-11T05:08:33;-0.90;99.90
14737;DHT22;7459;53.590;10.062;2022-12-11T05:11:02;-0.90;99.90
14737;DHT22;7459;53.590;10.062;2022-12-11T05:13:30;-1.00;99.90
14737;DHT22;7459;53.590;10.062;2022-12-11T05:15:56;-1.00;99.90
14737;DHT22;7459;53.590;10.062;2022-12-11T05:18:22;-0.90;99.90
14737;DHT22;7459;53.590;10.062;2022-12-11T05:21:02;-0.90;99.90
14737;DHT22;7459;53.590;10.062;2022-12-11T05:23:29;-0.90;99.90
14737;DHT22;7459;53.590;10.062;2022-12-11T05:25:57;-0.90;99.90
14737;DHT22;7459;53.590;10.062;2022-12-11T05:28:26;-0.90;99.90
14737;DHT22;7459;53.590;10.062;2022-12-11T05:30:57;-0.90;99.90
14737;DHT22;7459;53.590;10.062;2022-12-11T05:33:24;-1.00;99.90
14737;DHT22;7459;53.590;10.062;2022-12-11T05:35:51;-0.90;99.90
14737;DHT22;7459;53.590;10.062;2022-12-11T05:38:17;-0.90;99.90
14737;DHT22;7459;53.590;10.062;2022-12-11T05:40:43;-1.00;99.90
14737;DHT22;7459;53.590;10.062;2022-12-11T05:43:09;-0.90;99.90
14737;DHT22;7459;53.590;10.062;2022-12-11T05:45:34;-1.00;99.90
14737;DHT22;7459;53.590;10.062;2022-12-11T05:48:01;-1.00;99.90
14737;DHT22;7459;53.590;10.062;2022-12-11T05:50:26;-1.00;99.90
14737;DHT22;7459;53.590;10.062;2022-12-11T05:52:52;-1.00;99.90
14737;DHT22;7459;53.590;10.062;2022-12-11T05:55:18;-1.10;99.90
14737;DHT22;7459;53.590;10.062;2022-12-11T05:57:43;-1.10;99.90
14737;DHT22;7459;53.590;10.062;2022-12-11T06:00:11;-1.10;99.90
14737;DHT22;7459;53.590;10.062;2022-12-11T06:02:37;-1.10;99.90
14737;DHT22;7459;53.590;10.062;2022-12-11T06:05:03;-1.10;99.90
14737;DHT22;7459;53.590;10.062;2022-12-11T06:07:29;-1.20;99.90
14737;DHT22;7459;53.590;10.062;2022-12-11T06:09:54;-1.20;99.90
14737;DHT22;7459;53.590;10.062;2022-12-11T06:12:20;-1.20;99.90
14737;DHT22;7459;53.590;10.062;2022-12-11T06:14:46;-1.20;99.90
14737;DHT22;7459;53.590;10.062;2022-12-11T06:17:11;-1.20;99.90
14737;DHT22;7459;53.590;10.062;2022-12-11T06:19:37;-1.20;99.90
14737;DHT22;7459;53.590;10.062;2022-12-11T06:22:03;-1.30;99.90
14737;DHT22;7459;53.590;10.062;2022-12-11T06:24:29;-1.30;99.90
14737;DHT22;7459;53.590;10.062;2022-12-11T06:26:55;-1.30;99.90
14737;DHT22;7459;53.590;10.062;2022-12-11T06:29:20;-1.30;99.90
14737;DHT22;7459;53.590;10.062;2022-12-11T06:31:46;-1.30;99.90
14737;DHT22;7459;53.590;10.062;2022-12-11T06:34:12;-1.40;99.90
14737;DHT22;7459;53.590;10.062;2022-12-11T06:36:39;-1.40;99.90
14737;DHT22;7459;53.590;10.062;2022-12-11T06:39:04;-1.40;99.90
14737;DHT22;7459;53.590;10.062;2022-12-11T06:41:30;-1.50;99.90
14737;DHT22;7459;53.590;10.062;2022-12-11T06:43:56;-1.50;99.90
14737;DHT22;7459;53.590;10.062;2022-12-11T06:46:21;-1.50;99.90
14737;DHT22;7459;53.590;10.062;2022-12-11T06:48:48;-1.50;99.90
14737;DHT22;7459;53.590;10.062;2022-12-11T06:51:16;-1.60;99.90
14737;DHT22;7459;53.590;10.062;2022-12-11T06:53:44;-1.60;99.90
14737;DHT22;7459;53.590;10.062;2022-12-11T06:56:12;-1.60;99.90
14737;DHT22;7459;53.590;10.062;2022-12-11T06:58:39;-1.60;99.90
14737;DHT22;7459;53.590;10.062;2022-12-11T07:01:20;-1.70;99.90
14737;DHT22;7459;53.590;10.062;2022-12-11T07:03:48;-1.70;99.90
14737;DHT22;7459;53.590;10.062;2022-12-11T07:06:14;-1.70;99.90
14737;DHT22;7459;53.590;10.062;2022-12-11T07:08:40;-1.70;99.90
14737;DHT22;7459;53.590;10.062;2022-12-11T07:11:08;-1.70;99.90
14737;DHT22;7459;53.590;10.062;2022-12-11T07:13:35;-1.70;99.90
14737;DHT22;7459;53.590;10.062;2022-12-11T07:16:02;-1.70;99.90
14737;DHT22;7459;53.590;10.062;2022-12-11T07:18:29;-1.70;99.90
14737;DHT22;7459;53.590;10.062;2022-12-11T07:20:59;-1.70;99.90
14737;DHT22;7459;53.590;10.062;2022-12-11T07:23:26;-1.70;99.90
14737;DHT22;7459;53.590;10.062;2022-12-11T07:25:53;-1.80;99.90
14737;DHT22;7459;53.590;10.062;2022-12-11T07:28:19;-1.80;99.90
14737;DHT22;7459;53.590;10.062;2022-12-11T07:30:44;-1.80;99.90
14737;DHT22;7459;53.590;10.062;2022-12-11T07:33:10;-1.80;99.90
14737;DHT22;7459;53.590;10.062;2022-12-11T07:35:36;-1.90;99.90
14737;DHT22;7459;53.590;10.062;2022-12-11T07:38:02;-1.90;99.90
14737;DHT22;7459;53.590;10.062;2022-12-11T07:40:28;-1.90;99.90
14737;DHT22;7459;53.590;10.062;2022-12-11T07:42:53;-1.90;99.90
14737;DHT22;7459;53.590;10.062;2022-12-11T07:45:19;-1.90;99.90
14737;DHT22;7459;53.590;10.062;2022-12-11T07:47:45;-1.90;99.90
14737;DHT22;7459;53.590;10.062;2022-12-11T07:50:10;-1.90;99.90
14737;DHT22;7459;53.590;10.062;2022-12-11T07:52:36;-2.00;99.90
14737;DHT22;7459;53.590;10.062;2022-12-11T07:55:02;-2.00;99.90
14737;DHT22;7459;53.590;10.062;2022-12-11T07:57:28;-2.00;99.90
14737;DHT22;7459;53.590;10.062;2022-12-11T07:59:54;-1.90;99.90
14737;DHT22;7459;53.590;10.062;2022-12-11T08:02:20;-2.00;99.90
14737;DHT22;7459;53.590;10.062;2022-12-11T08:04:46;-1.90;99.90
14737;DHT22;7459;53.590;10.062;2022-12-11T08:07:12;-1.90;99.90
14737;DHT22;7459;53.590;10.062;2022-12-11T08:09:38;-1.90;99.90
14737;DHT22;7459;53.590;10.062;2022-12-11T08:12:04;-1.80;99.90
14737;DHT22;7459;53.590;10.062;2022-12-11T08:14:30;-1.80;99.90
14737;DHT22;7459;53.590;10.062;2022-12-11T08:16:55;-1.80;99.90
14737;DHT22;7459;53.590;10.062;2022-12-11T08:19:22;-1.80;99.90
14737;DHT22;7459;53.590;10.062;2022-12-11T08:21:48;-1.70;99.90
14737;DHT22;7459;53.590;10.062;2022-12-11T08:24:13;-1.80;99.90
14737;DHT22;7459;53.590;10.062;2022-12-11T08:26:44;-1.80;99.90
14737;DHT22;7459;53.590;10.062;2022-12-11T08:29:10;-1.80;99.90
14737;DHT22;7459;53.590;10.062;2022-12-11T08:31:35;-1.70;99.90
14737;DHT22;7459;53.590;10.062;2022-12-11T08:34:01;-1.70;99.90
14737;DHT22;7459;53.590;10.062;2022-12-11T08:36:27;-1.70;99.90
14737;DHT22;7459;53.590;10.062;2022-12-11T08:38:54;-1.70;99.90
14737;DHT22;7459;53.590;10.062;2022-12-11T08:41:25;-1.70;99.90
14737;DHT22;7459;53.590;10.062;2022-12-11T08:43:52;-1.70;99.90
14737;DHT22;7459;53.590;10.062;2022-12-11T08:46:21;-1.60;99.90
14737;DHT22;7459;53.590;10.062;2022-12-11T08:48:56;-1.60;99.90
14737;DHT22;7459;53.590;10.062;2022-12-11T08:51:24;-1.50;99.90
14737;DHT22;7459;53.590;10.062;2022-12-11T08:53:54;-1.50;99.90
14737;DHT22;7459;53.590;10.062;2022-12-11T08:56:21;-1.50;99.90
14737;DHT22;7459;53.590;10.062;2022-12-11T08:58:48;-1.50;99.90
14737;DHT22;7459;53.590;10.062;2022-12-11T09:01:19;-1.50;99.90
14737;DHT22;7459;53.590;10.062;2022-12-11T09:03:46;-1.50;99.90
14737;DHT22;7459;53.590;10.062;2022-12-11T09:06:15;-1.50;99.90
14737;DHT22;7459;53.590;10.062;2022-12-11T09:08:43;-1.50;99.90
14737;DHT22;7459;53.590;10.062;2022-12-11T09:11:12;-1.50;99.90
14737;DHT22;7459;53.590;10.062;2022-12-11T09:13:43;-1.40;99.90
14737;DHT22;7459;53.590;10.062;2022-12-11T09:16:15;-1.30;99.90
14737;DHT22;7459;53.590;10.062;2022-12-11T09:18:44;-1.10;99.90
14737;DHT22;7459;53.590;10.062;2022-12-11T09:21:14;-1.00;99.90
14737;DHT22;7459;53.590;10.062;2022-12-11T09:23:42;-1.00;99.90
14737;DHT22;7459;53.590;10.062;2022-12-11T09:26:10;-1.00;99.90
14737;DHT22;7459;53.590;10.062;2022-12-11T09:28:39;-1.00;99.90
14737;DHT22;7459;53.590;10.062;2022-12-11T09:31:10;-1.10;99.90
14737;DHT22;7459;53.590;10.062;2022-12-11T09:33:37;-1.10;99.90
14737;DHT22;7459;53.590;10.062;2022-12-11T09:36:03;-1.10;99.90
14737;DHT22;7459;53.590;10.062;2022-12-11T09:38:30;-1.00;99.90
14737;DHT22;7459;53.590;10.062;2022-12-11T09:40:56;-1.00;99.90
14737;DHT22;7459;53.590;10.062;2022-12-11T09:43:45;-1.00;99.90
14737;DHT22;7459;53.590;10.062;2022-12-11T09:46:15;-1.00;99.90
14737;DHT22;7459;53.590;10.062;2022-12-11T09:48:44;-1.00;99.90
14737;DHT22;7459;53.590;10.062;2022-12-11T09:51:28;-0.90;99.90
14737;DHT22;7459;53.590;10.062;2022-12-11T09:53:59;-0.90;99.90
14737;DHT22;7459;53.590;10.062;2022-12-11T09:56:34;-0.90;99.90
14737;DHT22;7459;53.590;10.062;2022-12-11T10:02:33;-0.90;99.90
14737;DHT22;7459;53.590;10.062;2022-12-11T10:07:49;-0.80;99.90
14737;DHT22;7459;53.590;10.062;2022-12-11T10:10:41;-0.80;99.90
14737;DHT22;7459;53.590;10.062;2022-12-11T10:13:28;-0.70;99.90
14737;DHT22;7459;53.590;10.062;2022-12-11T10:18:43;-0.60;99.90
14737;DHT22;7459;53.590;10.062;2022-12-11T10:21:14;-0.50;99.90
14737;DHT22;7459;53.590;10.062;2022-12-11T10:23:57;-0.50;99.90
14737;DHT22;7459;53.590;10.062;2022-12-11T10:26:27;-0.40;99.90
14737;DHT22;7459;53.590;10.062;2022-12-11T10:28:58;-0.30;99.90
14737;DHT22;7459;53.590;10.062;2022-12-11T10:31:57;-0.30;99.90
14737;DHT22;7459;53.590;10.062;2022-12-11T10:34:30;-0.30;99.90
14737;DHT22;7459;53.590;10.062;2022-12-11T10:37:05;-0.20;99.90
14737;DHT22;7459;53.590;10.062;2022-12-11T10:39:30;-0.10;99.90
14737;DHT22;7459;53.590;10.062;2022-12-11T10:41:56;-0.10;99.90
14737;DHT22;7459;53.590;10.062;2022-12-11T10:44:23;0.00;99.90
14737;DHT22;7459;53.590;10.062;2022-12-11T10:47:19;0.00;99.90
14737;DHT22;7459;53.590;10.062;2022-12-11T10:49:57;0.10;99.90
14737;DHT22;7459;53.590;10.062;2022-12-11T10:52:31;0.10;99.90
14737;DHT22;7459;53.590;10.062;2022-12-11T10:55:05;0.20;99.90
14737;DHT22;7459;53.590;10.062;2022-12-11T10:57:34;0.20;99.90
14737;DHT22;7459;53.590;10.062;2022-12-11T11:00:05;0.30;99.90
14737;DHT22;7459;53.590;10.062;2022-12-11T11:02:37;0.30;99.90
14737;DHT22;7459;53.590;10.062;2022-12-11T11:05:16;0.30;99.90
14737;DHT22;7459;53.590;10.062;2022-12-11T11:08:14;0.30;99.90
14737;DHT22;7459;53.590;10.062;2022-12-11T11:10:51;0.40;99.90
14737;DHT22;7459;53.590;10.062;2022-12-11T11:13:21;0.50;99.90
14737;DHT22;7459;53.590;10.062;2022-12-11T11:15:49;0.50;99.90
14737;DHT22;7459;53.590;10.062;2022-12-11T11:18:24;0.50;99.90
14737;DHT22;7459;53.590;10.062;2022-12-11T11:20:51;0.60;99.90
14737;DHT22;7459;53.590;10.062;2022-12-11T11:23:19;0.80;99.90
14737;DHT22;7459;53.590;10.062;2022-12-11T11:25:59;0.90;99.90
14737;DHT22;7459;53.590;10.062;2022-12-11T11:28:33;1.00;99.90
14737;DHT22;7459;53.590;10.062;2022-12-11T11:31:12;1.00;99.90
14737;DHT22;7459;53.590;10.062;2022-12-11T11:34:05;1.10;99.90
14737;DHT22;7459;53.590;10.062;2022-12-11T11:36:34;1.20;99.90
14737;DHT22;7459;53.590;10.062;2022-12-11T11:39:34;1.20;99.90
14737;DHT22;7459;53.590;10.062;2022-12-11T11:42:22;1.20;99.90
14737;DHT22;7459;53.590;10.062;2022-12-11T11:45:03;1.30;99.90
14737;DHT22;7459;53.590;10.062;2022-12-11T11:47:39;1.20;99.90
14737;DHT22;7459;53.590;10.062;2022-12-11T11:50:31;1.20;99.90
14737;DHT22;7459;53.590;10.062;2022-12-11T11:53:06;1.20;99.90
14737;DHT22;7459;53.590;10.062;2022-12-11T11:56:04;1.20;99.90
14737;DHT22;7459;53.590;10.062;2022-12-11T12:01:16;1.10;99.90
14737;DHT22;7459;53.590;10.062;2022-12-11T12:03:44;1.00;99.90
14737;DHT22;7459;53.590;10.062;2022-12-11T12:09:02;1.00;99.90
14737;DHT22;7459;53.590;10.062;2022-12-11T12:25:39;0.90;99.90
14737;DHT22;7459;53.590;10.062;2022-12-11T12:28:21;0.90;99.90
14737;DHT22;7459;53.590;10.062;2022-12-11T12:36:58;0.90;99.90
14737;DHT22;7459;53.590;10.062;2022-12-11T12:39:55;0.90;99.90
14737;DHT22;7459;53.590;10.062;2022-12-11T12:49:09;0.70;99.90
14737;DHT22;7459;53.590;10.062;2022-12-11T12:51:49;0.60;99.90
14737;DHT22;7459;53.590;10.062;2022-12-11T12:54:16;0.70;99.90
14737;DHT22;7459;53.590;10.062;2022-12-11T12:56:43;0.70;99.90
14737;DHT22;7459;53.590;10.062;2022-12-11T12:59:22;0.80;99.90
14737;DHT22;7459;53.590;10.062;2022-12-11T13:01:52;0.80;99.90
14737;DHT22;7459;53.590;10.062;2022-12-11T13:04:34;0.90;99.90
14737;DHT22;7459;53.590;10.062;2022-12-11T13:07:17;0.90;99.90
14737;DHT22;7459;53.590;10.062;2022-12-11T13:10:06;0.90;99.90
14737;DHT22;7459;53.590;10.062;2022-12-11T13:12:47;0.80;99.90
14737;DHT22;7459;53.590;10.062;2022-12-11T13:15:36;0.80;99.90
14737;DHT22;7459;53.590;10.062;2022-12-11T13:18:35;0.80;99.90
14737;DHT22;7459;53.590;10.062;2022-12-11T13:21:21;0.70;99.90
14737;DHT22;7459;53.590;10.062;2022-12-11T13:23:51;0.70;99.90
14737;DHT22;7459;53.590;10.062;2022-12-11T13:26:31;0.70;99.90
14737;DHT22;7459;53.590;10.062;2022-12-11T13:28:57;0.70;99.90
14737;DHT22;7459;53.590;10.062;2022-12-11T13:31:55;0.70;99.90
14737;DHT22;7459;53.590;10.062;2022-12-11T13:34:22;0.70;99.90
14737;DHT22;7459;53.590;10.062;2022-12-11T13:36:50;0.70;99.90
14737;DHT22;7459;53.590;10.062;2022-12-11T13:39:25;0.70;99.90
14737;DHT22;7459;53.590;10.062;2022-12-11T13:42:04;0.70;99.90
14737;DHT22;7459;53.590;10.062;2022-12-11T13:44:38;0.60;99.90
14737;DHT22;7459;53.590;10.062;2022-12-11T13:47:10;0.60;99.90
14737;DHT22;7459;53.590;10.062;2022-12-11T13:49:40;0.60;99.90
14737;DHT22;7459;53.590;10.062;2022-12-11T13:52:16;0.60;99.90
14737;DHT22;7459;53.590;10.062;2022-12-11T13:54:50;0.60;99.90
14737;DHT22;7459;53.590;10.062;2022-12-11T13:57:22;0.50;99.90
14737;DHT22;7459;53.590;10.062;2022-12-11T13:59:56;0.50;99.90
14737;DHT22;7459;53.590;10.062;2022-12-11T14:02:35;0.50;99.90
14737;DHT22;7459;53.590;10.062;2022-12-11T14:05:10;0.40;99.90
14737;DHT22;7459;53.590;10.062;2022-12-11T14:07:47;0.40;99.90
14737;DHT22;7459;53.590;10.062;2022-12-11T14:10:18;0.40;99.90
14737;DHT22;7459;53.590;10.062;2022-12-11T14:12:51;0.30;99.90
14737;DHT22;7459;53.590;10.062;2022-12-11T14:15:18;0.30;99.90
14737;DHT22;7459;53.590;10.062;2022-12-11T14:17:45;0.30;99.90
14737;DHT22;7459;53.590;10.062;2022-12-11T14:20:19;0.30;99.90
14737;DHT22;7459;53.590;10.062;2022-12-11T14:22:47;0.30;99.90
14737;DHT22;7459;53.590;10.062;2022-12-11T14:25:22;0.20;99.90
14737;DHT22;7459;53.590;10.062;2022-12-11T14:27:52;0.20;99.90
14737;DHT22;7459;53.590;10.062;2022-12-11T14:30:21;0.20;99.90
14737;DHT22;7459;53.590;10.062;2022-12-11T14:32:47;0.20;99.90
14737;DHT22;7459;53.590;10.062;2022-12-11T14:35:28;0.20;99.90
14737;DHT22;7459;53.590;10.062;2022-12-11T14:38:19;0.10;99.90
14737;DHT22;7459;53.590;10.062;2022-12-11T14:40:52;0.10;99.90
14737;DHT22;7459;53.590;10.062;2022-12-11T14:43:29;0.20;99.90
14737;DHT22;7459;53.590;10.062;2022-12-11T14:46:01;0.10;99.90
14737;DHT22;7459;53.590;10.062;2022-12-11T14:48:58;0.10;99.90
14737;DHT22;7459;53.590;10.062;2022-12-11T14:51:35;0.10;99.90
14737;DHT22;7459;53.590;10.062;2022-12-11T14:54:04;0.10;99.90
14737;DHT22;7459;53.590;10.062;2022-12-11T14:56:30;0.10;99.90
14737;DHT22;7459;53.590;10.062;2022-12-11T14:59:02;0.10;99.90
14737;DHT22;7459;53.590;10.062;2022-12-11T15:01:32;0.10;99.90
14737;DHT22;7459;53.590;10.062;2022-12-11T15:04:21;0.00;99.90
14737;DHT22;7459;53.590;10.062;2022-12-11T15:06:55;0.10;99.90
14737;DHT22;7459;53.590;10.062;2022-12-11T15:09:35;0.10;99.90
14737;DHT22;7459;53.590;10.062;2022-12-11T15:12:11;0.10;99.90
14737;DHT22;7459;53.590;10.062;2022-12-11T15:14:52;0.00;99.90
14737;DHT22;7459;53.590;10.062;2022-12-11T15:17:20;0.10;99.90
14737;DHT22;7459;53.590;10.062;2022-12-11T15:19:49;0.10;99.90
14737;DHT22;7459;53.590;10.062;2022-12-11T15:22:19;0.00;99.90
14737;DHT22;7459;53.590;10.062;2022-12-11T15:24:51;0.00;99.90
14737;DHT22;7459;53.590;10.062;2022-12-11T15:27:24;0.00;99.90
14737;DHT22;7459;53.590;10.062;2022-12-11T15:29:55;0.00;99.90
14737;DHT22;7459;53.590;10.062;2022-12-11T15:32:22;0.00;99.90
14737;DHT22;7459;53.590;10.062;2022-12-11T15:34:53;-0.10;99.90
14737;DHT22;7459;53.590;10.062;2022-12-11T15:37:25;0.00;99.90
14737;DHT22;7459;53.590;10.062;2022-12-11T15:39:54;0.00;99.90
14737;DHT22;7459;53.590;10.062;2022-12-11T15:42:30;0.00;99.90
14737;DHT22;7459;53.590;10.062;2022-12-11T15:44:58;0.00;99.90
14737;DHT22;7459;53.590;10.062;2022-12-11T15:47:26;0.00;99.90
14737;DHT22;7459;53.590;10.062;2022-12-11T15:49:58;0.10;99.90
14737;DHT22;7459;53.590;10.062;2022-12-11T15:52:26;0.10;99.90
14737;DHT22;7459;53.590;10.062;2022-12-11T15:54:52;0.10;99.90
14737;DHT22;7459;53.590;10.062;2022-12-11T15:57:22;0.10;99.90
14737;DHT22;7459;53.590;10.062;2022-12-11T15:59:50;0.10;99.90
14737;DHT22;7459;53.590;10.062;2022-12-11T16:02:17;0.00;99.90
14737;DHT22;7459;53.590;10.062;2022-12-11T16:04:43;0.00;99.90
14737;DHT22;7459;53.590;10.062;2022-12-11T16:07:18;0.00;99.90
14737;DHT22;7459;53.590;10.062;2022-12-11T16:09:45;0.00;99.90
14737;DHT22;7459;53.590;10.062;2022-12-11T16:12:11;-0.10;99.90
14737;DHT22;7459;53.590;10.062;2022-12-11T16:14:39;-0.10;99.90
14737;DHT22;7459;53.590;10.062;2022-12-11T16:17:06;-0.10;99.90
14737;DHT22;7459;53.590;10.062;2022-12-11T16:19:33;-0.10;99.90
14737;DHT22;7459;53.590;10.062;2022-12-11T16:21:59;-0.10;99.90
14737;DHT22;7459;53.590;10.062;2022-12-11T16:24:25;-0.10;99.90
14737;DHT22;7459;53.590;10.062;2022-12-11T16:26:51;-0.10;99.90
14737;DHT22;7459;53.590;10.062;2022-12-11T16:29:17;-0.10;99.90
14737;DHT22;7459;53.590;10.062;2022-12-11T16:31:42;-0.10;99.90
14737;DHT22;7459;53.590;10.062;2022-12-11T16:34:08;-0.10;99.90
14737;DHT22;7459;53.590;10.062;2022-12-11T16:36:34;-0.10;99.90
14737;DHT22;7459;53.590;10.062;2022-12-11T16:39:00;-0.10;99.90
14737;DHT22;7459;53.590;10.062;2022-12-11T16:41:25;-0.20;99.90
14737;DHT22;7459;53.590;10.062;2022-12-11T16:43:52;-0.10;99.90
14737;DHT22;7459;53.590;10.062;2022-12-11T16:46:19;-0.10;99.90
14737;DHT22;7459;53.590;10.062;2022-12-11T16:48:46;-0.10;99.90
14737;DHT22;7459;53.590;10.062;2022-12-11T16:51:12;-0.10;99.90
14737;DHT22;7459;53.590;10.062;2022-12-11T16:53:38;-0.10;99.90
14737;DHT22;7459;53.590;10.062;2022-12-11T16:56:04;-0.10;99.90
14737;DHT22;7459;53.590;10.062;2022-12-11T16:58:31;-0.10;99.90